Time;durP1;ratioP1;P1;durP2;ratioP2;P2;SDS_P1;SDS_P2;PMS_P1;PMS_P2;Temp;Humidity;BMP_temperature;BMP_pressure;BME280_temperature;BME280_humidity;BME280_pressure;Samples;Min_cycle;Max_cycle;Signal;HPM_P1;HPM_P2
2022/12/24 00:01:20;;;;;;;27.67;7.00;;;;;;;10.33;100.00;100491.44;5092195;28;20043;-55
2022/12/24 00:03:48;;;;;;;32.25;7.35;;;;;;;10.30;100.00;100494.72;5092852;28;20051;-52
2022/12/24 00:06:19;;;;;;;24.35;6.47;;;;;;;10.31;100.00;100494.44;5092880;28;20047;-53
2022/12/24 00:08:46;;;;;;;30.10;7.75;;;;;;;10.31;100.00;100499.06;5092610;28;20448;-52
2022/12/24 00:11:14;;;;;;;26.00;6.93;;;;;;;10.29;100.00;100501.25;5092906;28;20379;-54
2022/12/24 00:13:42;;;;;;;25.73;6.65;;;;;;;10.26;100.00;100509.94;5092525;28;20051;-55
2022/12/24 00:16:09;;;;;;;25.73;6.50;;;;;;;10.27;100.00;100508.84;5092293;28;20048;-52
2022/12/24 00:18:37;;;;;;;26.08;6.38;;;;;;;10.25;100.00;100506.41;5092623;28;20051;-55
2022/12/24 00:21:13;;;;;;;28.00;5.85;;;;;;;10.26;100.00;100508.03;5093065;28;20093;-55
2022/12/24 00:23:41;;;;;;;34.72;7.72;;;;;;;10.26;100.00;100513.47;5091339;28;20032;-52
2022/12/24 00:26:08;;;;;;;30.75;7.10;;;;;;;10.29;100.00;100525.75;5091940;28;20414;-50
2022/12/24 00:28:36;;;;;;;35.50;7.90;;;;;;;10.28;100.00;100518.66;5091021;28;20135;-51
2022/12/24 00:31:17;;;;;;;35.38;7.88;;;;;;;10.27;100.00;100525.19;5089626;28;20064;-54
2022/12/24 00:33:46;;;;;;;31.17;7.63;;;;;;;10.30;100.00;100535.56;5092424;28;20105;-52
2022/12/24 00:36:14;;;;;;;30.50;7.45;;;;;;;10.28;100.00;100537.72;5093164;28;20486;-55
2022/12/24 00:38:42;;;;;;;29.55;7.85;;;;;;;10.29;100.00;100544.81;5093703;28;20051;-58
2022/12/24 00:41:27;;;;;;;27.33;7.22;;;;;;;10.31;100.00;100542.66;5093798;28;20040;-55
2022/12/24 00:44:04;;;;;;;33.35;7.30;;;;;;;10.30;100.00;100546.47;5093055;28;20089;-55
2022/12/24 00:46:33;;;;;;;29.02;7.63;;;;;;;10.28;100.00;100546.72;5093577;28;20044;-55
2022/12/24 00:49:01;;;;;;;22.85;6.82;;;;;;;10.29;100.00;100551.06;5092933;28;20070;-51
2022/12/24 00:51:29;;;;;;;37.42;8.10;;;;;;;10.29;100.00;100561.16;5092288;28;20082;-50
2022/12/24 00:53:57;;;;;;;29.42;7.88;;;;;;;10.33;100.00;100564.97;5092909;28;20055;-51
2022/12/24 00:56:24;;;;;;;32.10;8.32;;;;;;;10.31;100.00;100564.44;5092824;28;20036;-51
2022/12/24 00:58:52;;;;;;;34.03;7.78;;;;;;;10.29;100.00;100567.41;5092780;28;20044;-52
2022/12/24 01:01:22;;;;;;;27.85;7.07;;;;;;;10.31;100.00;100570.69;5091523;28;20461;-52
2022/12/24 01:03:51;;;;;;;26.40;6.60;;;;;;;10.29;100.00;100574.78;5091017;28;20060;-53
2022/12/24 01:06:20;;;;;;;41.03;7.45;;;;;;;10.28;100.00;100586.72;5092707;28;20044;-52
2022/12/24 01:08:51;;;;;;;25.58;6.35;;;;;;;10.29;100.00;100591.13;5092759;28;20110;-53
2022/12/24 01:11:19;;;;;;;24.23;6.28;;;;;;;10.27;100.00;100596.81;5091777;28;20032;-54
2022/12/24 01:13:46;;;;;;;25.33;7.00;;;;;;;10.27;100.00;100588.66;5092209;28;20036;-53
2022/12/24 01:16:17;;;;;;;30.45;7.65;;;;;;;10.23;100.00;100596.53;5092359;28;20093;-52
2022/12/24 01:18:45;;;;;;;30.35;7.35;;;;;;;10.23;100.00;100601.16;5092777;28;20093;-57
2022/12/24 01:21:12;;;;;;;28.08;6.88;;;;;;;10.26;100.00;100599.81;5092469;28;20040;-50
2022/12/24 01:23:40;;;;;;;27.27;6.78;;;;;;;10.29;100.00;100602.00;5090168;28;20125;-56
2022/12/24 01:26:10;;;;;;;24.60;6.97;;;;;;;10.27;100.00;100601.41;5093383;28;20043;-53
2022/12/24 01:28:38;;;;;;;26.35;6.53;;;;;;;10.25;100.00;100596.25;5095462;28;20047;-52
2022/12/24 01:31:14;;;;;;;23.23;6.05;;;;;;;10.26;100.00;100616.94;5095322;28;20102;-55
2022/12/24 01:33:42;;;;;;;29.83;7.07;;;;;;;10.26;100.00;100618.88;5093601;28;20070;-55
2022/12/24 01:36:11;;;;;;;31.50;8.07;;;;;;;10.24;100.00;100621.84;5095126;28;20437;-56
2022/12/24 01:38:38;;;;;;;24.27;6.63;;;;;;;10.22;100.00;100627.56;5093959;28;20036;-51
2022/12/24 01:43:52;;;;;;;30.38;7.15;;;;;;;10.29;100.00;100632.75;5088913;28;20541;-57
2022/12/24 01:46:27;;;;;;;28.58;7.32;;;;;;;10.27;100.00;100632.22;5094011;28;20043;-55
2022/12/24 01:49:01;;;;;;;29.38;7.07;;;;;;;10.26;100.00;100633.28;5096128;28;20052;-56
2022/12/24 01:51:37;;;;;;;29.20;7.45;;;;;;;10.27;100.00;100639.53;5095899;28;20036;-52
2022/12/24 01:54:17;;;;;;;35.55;7.43;;;;;;;10.26;100.00;100640.66;5094778;28;20044;-52
2022/12/24 01:56:52;;;;;;;29.30;7.18;;;;;;;10.19;100.00;100639.00;5095870;28;20039;-53
2022/12/24 01:59:20;;;;;;;25.38;6.82;;;;;;;10.17;100.00;100638.47;5095444;28;20509;-52
2022/12/24 02:01:49;;;;;;;33.45;8.13;;;;;;;10.15;100.00;100648.81;5093618;28;20524;-54
2022/12/24 02:04:36;;;;;;;33.80;7.60;;;;;;;10.15;100.00;100645.25;5094084;28;20040;-51
2022/12/24 02:07:04;;;;;;;25.88;6.88;;;;;;;10.13;100.00;100644.72;5095777;28;20399;-55
2022/12/24 02:09:33;;;;;;;27.50;7.22;;;;;;;10.11;100.00;100653.13;5094372;28;20040;-55
2022/12/24 02:12:01;;;;;;;29.25;7.15;;;;;;;10.09;100.00;100671.66;5078589;28;20032;-54
2022/12/24 02:14:31;;;;;;;28.70;7.30;;;;;;;10.10;100.00;100672.47;5092415;28;20040;-52
2022/12/24 02:17:01;;;;;;;28.67;7.35;;;;;;;10.08;100.00;100667.31;5091523;28;20044;-53
2022/12/24 02:19:41;;;;;;;25.17;6.80;;;;;;;10.09;100.00;100666.19;5093888;28;20107;-57
2022/12/24 02:22:14;;;;;;;31.58;8.13;;;;;;;10.12;100.00;100667.56;5082908;28;20093;-54
2022/12/24 02:25:11;;;;;;;25.42;6.80;;;;;;;10.13;100.00;100664.59;5091101;28;20534;-56
2022/12/24 02:27:56;;;;;;;26.88;7.10;;;;;;;10.13;100.00;100672.75;5094856;28;20036;-54
2022/12/24 02:30:47;;;;;;;30.83;7.60;;;;;;;10.15;100.00;100670.59;5080907;28;20032;-56
2022/12/24 02:33:21;;;;;;;25.08;6.78;;;;;;;10.16;100.00;100674.94;5093168;28;20055;-57
2022/12/24 02:36:05;;;;;;;34.78;8.45;;;;;;;10.17;100.00;100668.41;5094055;28;20040;-53
2022/12/24 02:38:34;;;;;;;25.88;6.65;;;;;;;10.16;100.00;100676.84;5093439;28;20051;-52
2022/12/24 02:41:08;;;;;;;30.33;7.07;;;;;;;10.15;100.00;100673.31;5093533;28;20048;-52
2022/12/24 02:43:39;;;;;;;28.77;7.05;;;;;;;10.16;100.00;100668.66;5093776;28;20044;-56
2022/12/24 02:46:19;;;;;;;25.85;6.82;;;;;;;10.13;100.00;100678.19;5084563;28;20036;-54
2022/12/24 02:48:48;;;;;;;32.83;7.85;;;;;;;10.13;100.00;100672.75;5093771;28;20040;-50
2022/12/24 02:51:16;;;;;;;25.70;7.13;;;;;;;10.20;100.00;100686.13;5093720;28;20036;-57
2022/12/24 02:53:44;;;;;;;24.30;7.60;;;;;;;10.24;100.00;100679.84;5092454;28;20524;-55
2022/12/24 02:56:11;;;;;;;28.70;7.82;;;;;;;10.19;100.00;100688.00;5094579;28;20497;-56
2022/12/24 02:58:56;;;;;;;33.72;8.35;;;;;;;10.20;100.00;100681.47;5094587;28;20494;-56
2022/12/24 03:01:26;;;;;;;23.67;6.90;;;;;;;10.23;100.00;100689.09;5059355;28;20147;-55
2022/12/24 03:04:18;;;;;;;33.92;7.57;;;;;;;10.19;100.00;100698.88;5084955;28;20447;-56
2022/12/24 03:06:55;;;;;;;21.77;6.32;;;;;;;10.22;100.00;100690.19;5084259;28;20090;-57
2022/12/24 03:09:22;;;;;;;;;;;;;;;10.19;100.00;100693.44;5093561;28;20036;-53
2022/12/24 03:12:01;;;;;;;28.58;7.57;;;;;;;10.19;100.00;100681.75;5093836;28;19928;-54
2022/12/24 03:14:29;;;;;;;35.25;8.73;;;;;;;10.16;100.00;100688.53;5082523;28;20036;-52
2022/12/24 03:16:58;;;;;;;31.30;8.27;;;;;;;10.15;100.00;100686.91;5078663;28;20075;-54
2022/12/24 03:19:26;;;;;;;29.27;7.95;;;;;;;10.14;100.00;100684.44;5093379;28;20036;-57
2022/12/24 03:21:57;;;;;;;27.00;7.30;;;;;;;10.16;100.00;100694.00;5072619;28;20132;-56
2022/12/24 03:24:24;;;;;;;30.35;8.35;;;;;;;10.11;100.00;100696.69;5066555;28;20036;-53
2022/12/24 03:26:52;;;;;;;29.35;7.35;;;;;;;10.12;100.00;100690.16;5091553;28;20376;-56
2022/12/24 03:29:20;;;;;;;34.78;8.35;;;;;;;10.11;100.00;100696.69;5094324;28;20044;-56
2022/12/24 03:31:50;;;;;;;30.00;7.68;;;;;;;10.12;100.00;100698.31;5092740;28;20047;-54
2022/12/24 03:34:18;;;;;;;31.98;7.75;;;;;;;10.14;100.00;100695.34;5092721;28;20051;-56
2022/12/24 03:36:47;;;;;;;34.53;8.23;;;;;;;10.15;100.00;100697.81;5093185;28;20048;-55
2022/12/24 03:39:15;;;;;;;27.50;7.00;;;;;;;10.14;100.00;100701.59;5080117;28;20127;-55
2022/12/24 03:41:42;;;;;;;28.98;7.55;;;;;;;10.16;100.00;100696.72;5095470;28;20494;-57
2022/12/24 03:44:10;;;;;;;34.05;8.98;;;;;;;10.16;100.00;100701.34;5095385;28;20043;-53
2022/12/24 03:46:37;;;;;;;27.13;6.90;;;;;;;10.18;100.00;100701.91;5092772;28;20044;-56
2022/12/24 03:49:05;;;;;;;33.72;8.15;;;;;;;10.16;100.00;100699.44;5078802;28;20488;-54
2022/12/24 03:51:33;;;;;;;25.30;7.45;;;;;;;10.16;100.00;100702.16;5092033;28;20040;-58
2022/12/24 03:54:01;;;;;;;29.05;8.40;;;;;;;10.17;100.00;100709.25;5093637;28;20047;-53
2022/12/24 03:56:28;;;;;;;31.23;7.72;;;;;;;10.16;100.00;100710.31;5092647;28;20044;-56
2022/12/24 03:58:56;;;;;;;31.83;7.60;;;;;;;10.16;100.00;100712.22;5092792;28;20128;-49
2022/12/24 04:01:23;;;;;;;26.52;7.40;;;;;;;10.15;100.00;100719.59;5095458;28;20119;-57
2022/12/24 04:03:51;;;;;;;33.88;8.15;;;;;;;10.15;100.00;100722.31;5094553;28;20043;-52
2022/12/24 04:06:19;;;;;;;31.13;7.85;;;;;;;10.17;100.00;100725.59;5092456;28;20036;-56
2022/12/24 04:08:47;;;;;;;26.48;6.68;;;;;;;10.16;100.00;100715.75;5089141;28;20086;-54
2022/12/24 04:11:15;;;;;;;32.22;8.00;;;;;;;10.15;100.00;100725.03;5090346;28;20608;-57
2022/12/24 04:13:43;;;;;;;29.63;7.80;;;;;;;10.14;100.00;100723.38;5093218;28;20044;-56
2022/12/24 04:16:13;;;;;;;30.92;7.80;;;;;;;10.14;100.00;100717.13;5092367;28;20036;-54
2022/12/24 04:18:41;;;;;;;30.25;7.78;;;;;;;10.15;100.00;100719.59;5092131;28;20050;-52
2022/12/24 04:21:09;;;;;;;30.17;8.02;;;;;;;10.19;100.00;100728.84;5092118;28;20136;-54
2022/12/24 04:23:39;;;;;;;26.77;8.02;;;;;;;10.22;100.00;100747.38;5077936;28;20032;-52
2022/12/24 04:26:08;;;;;;;29.38;7.18;;;;;;;10.21;100.00;100736.75;5093095;28;20071;-54
2022/12/24 04:28:37;;;;;;;27.80;7.53;;;;;;;10.22;100.00;100735.66;5091001;28;20044;-58
2022/12/24 04:31:08;;;;;;;25.75;6.63;;;;;;;10.23;100.00;100732.66;5094406;28;20036;-57
2022/12/24 04:33:36;;;;;;;22.90;6.68;;;;;;;10.22;100.00;100731.03;5094113;28;20048;-57
2022/12/24 04:36:05;;;;;;;29.38;7.70;;;;;;;10.22;100.00;100738.38;5095004;28;20429;-56
2022/12/24 04:38:33;;;;;;;32.03;7.97;;;;;;;10.24;100.00;100739.75;5091593;28;20058;-53
2022/12/24 04:41:02;;;;;;;26.58;6.82;;;;;;;10.23;100.00;100743.56;5091908;28;20452;-57
2022/12/24 04:43:30;;;;;;;26.08;7.45;;;;;;;10.26;100.00;100736.75;5092273;28;20398;-57
2022/12/24 04:46:19;;;;;;;29.15;7.72;;;;;;;10.27;100.00;100745.75;5093141;28;20036;-56
2022/12/24 04:48:48;;;;;;;22.83;6.95;;;;;;;10.24;100.00;100750.63;5091857;28;20050;-53
2022/12/24 04:51:17;;;;;;;24.15;7.20;;;;;;;10.23;100.00;100748.19;5093172;28;20040;-56
2022/12/24 04:53:45;;;;;;;29.02;7.55;;;;;;;10.30;100.00;100747.97;5092934;28;20040;-56
2022/12/24 04:56:15;;;;;;;28.65;7.57;;;;;;;10.26;100.00;100753.09;5092989;28;20042;-54
2022/12/24 04:58:43;;;;;;;20.67;6.20;;;;;;;10.28;100.00;100750.13;5091519;28;20482;-52
2022/12/24 05:01:18;;;;;;;19.92;6.47;;;;;;;10.27;100.00;100759.34;5093085;28;20040;-54
2022/12/24 05:03:47;;;;;;;25.88;6.80;;;;;;;10.27;100.00;100754.75;5096592;28;20050;-57
2022/12/24 05:06:19;;;;;;;28.13;8.32;;;;;;;10.27;100.00;100760.19;5095747;28;20486;-53
2022/12/24 05:08:46;;;;;;;24.42;6.88;;;;;;;10.26;100.00;100758.53;5095860;28;20387;-55
2022/12/24 05:11:14;;;;;;;28.63;6.90;;;;;;;10.27;100.00;100759.34;5093838;28;20089;-53
2022/12/24 05:13:43;;;;;;;24.13;6.32;;;;;;;10.29;100.00;100762.66;5096358;28;20044;-56
2022/12/24 05:16:16;;;;;;;24.50;7.35;;;;;;;10.28;100.00;100761.00;5097857;28;20059;-57
2022/12/24 05:18:43;;;;;;;25.90;6.80;;;;;;;10.25;100.00;100762.38;5077530;28;20469;-58
2022/12/24 05:21:16;;;;;;;28.92;7.18;;;;;;;10.25;100.00;100762.38;5090326;28;20032;-57
2022/12/24 05:26:31;;;;;;;28.15;7.05;;;;;;;10.26;100.00;100758.53;5096642;28;20040;-56
2022/12/24 05:29:00;;;;;;;29.02;6.95;;;;;;;10.28;100.00;100756.41;5071227;28;20040;-55
2022/12/24 05:31:29;;;;;;;24.88;6.45;;;;;;;10.29;100.00;100751.78;5089549;28;20040;-53
2022/12/24 05:33:57;;;;;;;30.63;7.72;;;;;;;10.28;100.00;100755.56;5096021;28;20363;-56
2022/12/24 05:36:25;;;;;;;23.77;6.57;;;;;;;10.28;100.00;100766.47;5096401;28;20036;-56
2022/12/24 05:38:52;;;;;;;25.65;6.63;;;;;;;10.26;100.00;100757.72;5095163;28;20047;-57
2022/12/24 05:41:20;;;;;;;25.85;6.85;;;;;;;10.26;100.00;100755.00;5083009;28;20498;-55
2022/12/24 05:43:48;;;;;;;27.92;6.97;;;;;;;10.28;100.00;100761.00;5080529;28;20059;-57
2022/12/24 05:46:17;;;;;;;30.13;7.28;;;;;;;10.29;100.00;100768.94;5095429;28;20132;-55
2022/12/24 05:48:46;;;;;;;26.90;6.82;;;;;;;10.30;100.00;100769.78;5094991;28;20036;-51
2022/12/24 05:51:14;;;;;;;24.63;6.57;;;;;;;10.33;100.00;100774.66;5094767;28;20448;-58
2022/12/24 05:53:42;;;;;;;29.50;7.28;;;;;;;10.31;100.00;100774.13;5094905;28;20033;-55
2022/12/24 05:56:12;;;;;;;22.77;6.30;;;;;;;10.31;100.00;100768.66;5095918;28;20131;-55
2022/12/24 05:58:41;;;;;;;22.73;6.53;;;;;;;10.29;100.00;100774.38;5096002;28;20048;-52
2022/12/24 06:01:09;;;;;;;23.02;6.80;;;;;;;10.27;100.00;100781.16;5094607;28;20044;-54
2022/12/24 06:03:37;;;;;;;23.58;6.25;;;;;;;10.27;100.00;100800.19;5094416;28;20097;-54
2022/12/24 06:06:08;;;;;;;28.90;7.32;;;;;;;10.26;100.00;100801.31;5094739;28;20089;-56
2022/12/24 06:08:37;;;;;;;26.90;7.25;;;;;;;10.23;100.00;100808.91;5087407;28;20044;-53
2022/12/24 06:11:07;;;;;;;32.90;8.05;;;;;;;10.21;100.00;100804.81;5093415;28;20040;-55
2022/12/24 06:13:36;;;;;;;28.67;7.53;;;;;;;10.16;100.00;100804.81;5094218;28;20065;-57
2022/12/24 06:16:05;;;;;;;27.40;7.25;;;;;;;10.11;100.00;100802.88;5095537;28;20032;-57
2022/12/24 06:18:35;;;;;;;29.90;7.25;;;;;;;10.12;100.00;100811.84;5095544;28;20498;-55
2022/12/24 06:21:03;;;;;;;26.38;6.32;;;;;;;10.16;100.00;100807.53;5092249;28;20044;-57
2022/12/24 06:23:33;;;;;;;23.92;6.35;;;;;;;10.16;100.00;100811.06;5089870;28;20042;-57
2022/12/24 06:26:02;;;;;;;26.90;7.38;;;;;;;10.16;100.00;100819.22;5082474;28;20087;-57
2022/12/24 06:28:32;;;;;;;29.77;7.45;;;;;;;10.18;100.00;100816.25;5075337;28;20490;-57
2022/12/24 06:31:00;;;;;;;31.00;7.70;;;;;;;10.17;100.00;100810.00;5092883;28;20143;-57
2022/12/24 06:33:31;;;;;;;22.92;6.15;;;;;;;10.19;100.00;100813.25;5089022;28;20050;-59
2022/12/24 06:35:59;;;;;;;28.17;7.63;;;;;;;10.20;100.00;100825.78;5093485;28;20387;-57
2022/12/24 06:38:29;;;;;;;29.75;7.70;;;;;;;10.19;100.00;100826.84;5094720;28;20123;-57
2022/12/24 06:40:57;;;;;;;29.20;7.22;;;;;;;10.21;100.00;100827.41;5094923;28;20040;-59
2022/12/24 06:43:25;;;;;;;26.83;6.65;;;;;;;10.19;100.00;100828.78;5094430;28;20044;-59
2022/12/24 06:45:53;;;;;;;27.17;7.13;;;;;;;10.18;100.00;100827.97;5095128;28;20086;-60
2022/12/24 06:48:20;;;;;;;25.73;6.93;;;;;;;10.19;100.00;100829.59;5094650;28;20498;-56
2022/12/24 06:50:48;;;;;;;23.80;6.07;;;;;;;10.22;100.00;100836.41;5094848;28;20055;-57
2022/12/24 06:53:16;;;;;;;25.02;6.80;;;;;;;10.19;100.00;100835.03;5092464;28;20044;-58
2022/12/24 06:55:43;;;;;;;22.65;6.70;;;;;;;10.16;100.00;100838.28;5094604;28;20127;-58
2022/12/24 06:58:12;;;;;;;25.73;6.28;;;;;;;10.14;100.00;100835.00;5093237;28;20513;-58
2022/12/24 07:00:40;;;;;;;27.10;7.15;;;;;;;10.13;100.00;100836.09;5094184;28;20402;-58
2022/12/24 07:03:07;;;;;;;22.05;6.32;;;;;;;10.16;100.00;100827.41;5092897;28;20040;-58
2022/12/24 07:05:35;;;;;;;26.98;6.82;;;;;;;10.16;100.00;100826.59;5093187;28;20081;-59
2022/12/24 07:08:02;;;;;;;29.23;7.68;;;;;;;10.15;100.00;100842.09;5094203;28;20048;-57
2022/12/24 07:10:30;;;;;;;27.15;6.53;;;;;;;10.15;100.00;100854.88;5094120;28;20093;-57
2022/12/24 07:12:57;;;;;;;31.95;7.18;;;;;;;10.12;100.00;100855.41;5092517;28;20386;-59
2022/12/24 07:15:25;;;;;;;28.20;7.13;;;;;;;10.12;100.00;100861.66;5093410;28;20040;-54
2022/12/24 07:17:53;;;;;;;27.92;6.88;;;;;;;10.10;100.00;100852.97;5093965;28;20062;-59
2022/12/24 07:20:20;;;;;;;29.05;6.85;;;;;;;10.10;100.00;100858.41;5094119;28;20043;-58
2022/12/24 07:22:48;;;;;;;29.88;6.35;;;;;;;10.10;100.00;100863.88;5080227;28;20132;-59
2022/12/24 07:25:16;;;;;;;32.60;7.90;;;;;;;10.08;100.00;100863.31;5091146;28;20479;-55
2022/12/24 07:27:43;;;;;;;29.13;7.10;;;;;;;10.08;100.00;100868.75;5094049;28;20044;-58
2022/12/24 07:30:11;;;;;;;30.10;7.50;;;;;;;10.07;100.00;100867.09;5093596;28;20457;-52
2022/12/24 07:32:40;;;;;;;26.15;6.55;;;;;;;10.07;100.00;100869.81;5092196;28;20044;-59
2022/12/24 07:35:08;;;;;;;24.08;6.13;;;;;;;10.08;100.00;100879.63;5092160;28;20036;-59
2022/12/24 07:37:36;;;;;;;34.70;8.20;;;;;;;10.02;100.00;100878.78;5093561;28;20505;-60
2022/12/24 07:40:06;;;;;;;30.52;7.82;;;;;;;9.97;100.00;100884.19;5093744;28;20040;-58
2022/12/24 07:42:34;;;;;;;24.48;7.28;;;;;;;9.97;100.00;100886.91;5093436;28;20056;-59
2022/12/24 07:45:02;;;;;;;37.42;9.15;;;;;;;9.98;100.00;100890.44;5092444;28;20036;-56
2022/12/24 07:47:29;;;;;;;38.58;8.80;;;;;;;9.98;100.00;100904.06;5080042;28;20040;-59
2022/12/24 07:49:57;;;;;;;35.72;8.18;;;;;;;9.99;100.00;100903.00;5093838;28;20040;-56
2022/12/24 07:52:25;;;;;;;31.00;7.70;;;;;;;9.97;100.00;100899.69;5091897;28;20029;-59
2022/12/24 07:54:52;;;;;;;37.83;8.57;;;;;;;9.96;100.00;100900.78;5093624;28;20040;-58
2022/12/24 07:57:20;;;;;;;33.33;7.97;;;;;;;9.93;100.00;100907.59;5092440;28;20127;-59
2022/12/24 07:59:48;;;;;;;35.90;8.60;;;;;;;9.93;100.00;100917.63;5094165;28;20095;-58
2022/12/24 08:02:15;;;;;;;34.95;7.82;;;;;;;9.90;100.00;100924.41;5092979;28;20055;-59
2022/12/24 08:04:45;;;;;;;30.58;7.75;;;;;;;9.90;100.00;100934.50;5092636;28;20065;-60
2022/12/24 08:07:13;;;;;;;34.03;8.60;;;;;;;9.87;100.00;100945.91;5088319;28;20036;-59
2022/12/24 08:09:40;;;;;;;38.90;8.48;;;;;;;9.88;100.00;100947.53;5092866;28;20040;-57
2022/12/24 08:12:08;;;;;;;32.38;8.52;;;;;;;9.85;100.00;100954.31;5092703;28;20040;-58
2022/12/24 08:14:35;;;;;;;32.53;8.35;;;;;;;9.86;100.00;100960.56;5092589;28;20123;-57
2022/12/24 08:17:03;;;;;;;36.35;8.43;;;;;;;9.87;100.00;100960.31;5094107;28;20054;-57
2022/12/24 08:19:31;;;;;;;35.28;8.10;;;;;;;9.85;100.00;100970.66;5093549;28;20032;-56
2022/12/24 08:21:58;;;;;;;37.33;8.70;;;;;;;9.84;100.00;100974.47;5086927;28;20044;-57
2022/12/24 08:24:26;;;;;;;31.90;7.47;;;;;;;9.82;100.00;100972.00;5092272;28;20111;-58
2022/12/24 08:26:54;;;;;;;33.03;9.15;;;;;;;9.82;100.00;100973.91;5091797;28;20407;-56
2022/12/24 08:29:21;;;;;;;37.63;9.30;;;;;;;9.82;100.00;100974.72;5092769;28;20127;-56
2022/12/24 08:31:49;;;;;;;32.95;8.18;;;;;;;9.84;100.00;100979.06;5092931;28;20052;-56
2022/12/24 08:34:16;;;;;;;38.45;8.25;;;;;;;9.86;100.00;100977.75;5092852;28;20071;-55
2022/12/24 08:36:44;;;;;;;32.97;8.23;;;;;;;9.87;100.00;100987.53;5091531;28;20035;-56
2022/12/24 08:39:12;;;;;;;31.13;7.90;;;;;;;9.88;100.00;100985.63;5092915;28;20090;-58
2022/12/24 08:41:39;;;;;;;32.13;8.52;;;;;;;9.90;100.00;100980.75;5085444;28;20036;-57
2022/12/24 08:44:07;;;;;;;34.38;9.98;;;;;;;9.90;100.00;100980.75;5090759;28;20032;-58
2022/12/24 08:46:35;;;;;;;34.25;8.40;;;;;;;9.89;100.00;100987.28;5092949;28;20051;-59
2022/12/24 08:49:03;;;;;;;35.75;9.00;;;;;;;9.87;100.00;100984.00;5092469;28;20090;-57
2022/12/24 08:51:31;;;;;;;33.13;8.07;;;;;;;9.88;100.00;100996.53;5090853;28;20036;-56
2022/12/24 08:53:58;;;;;;;35.92;9.10;;;;;;;9.88;100.00;101001.97;5093829;28;20059;-58
2022/12/24 08:56:26;;;;;;;32.47;7.80;;;;;;;9.92;100.00;101008.53;5093343;28;20048;-56
2022/12/24 08:58:53;;;;;;;29.38;7.43;;;;;;;9.93;100.00;101004.72;5093800;28;20452;-58
2022/12/24 09:01:21;;;;;;;36.10;8.88;;;;;;;9.93;100.00;101015.63;5092403;28;20137;-56
2022/12/24 09:03:49;;;;;;;29.00;8.27;;;;;;;9.89;100.00;101012.59;5092445;28;20506;-55
2022/12/24 09:06:17;;;;;;;33.92;8.38;;;;;;;9.88;100.00;101023.72;5093411;28;20063;-52
2022/12/24 09:08:44;;;;;;;33.60;8.00;;;;;;;10.00;100.00;101027.09;5088380;28;20047;-57
2022/12/24 09:11:15;;;;;;;33.00;7.25;;;;;;;10.00;100.00;101024.38;5091680;28;20036;-55
2022/12/24 09:13:43;;;;;;;35.33;8.18;;;;;;;10.00;100.00;101027.09;5092544;28;20032;-57
2022/12/24 09:16:11;;;;;;;39.80;8.90;;;;;;;10.00;100.00;101032.56;5093161;28;20119;-56
2022/12/24 09:18:40;;;;;;;36.88;8.93;;;;;;;9.99;100.00;101036.38;5089943;28;20055;-56
2022/12/24 09:21:10;;;;;;;39.50;9.30;;;;;;;10.00;100.00;101040.72;5091862;28;20448;-56
2022/12/24 09:23:39;;;;;;;31.13;8.15;;;;;;;10.02;100.00;101035.84;5091800;28;20469;-58
2022/12/24 09:26:14;;;;;;;36.17;10.38;;;;;;;10.02;100.00;101044.00;5093294;28;20050;-59
2022/12/24 09:28:42;;;;;;;35.65;9.35;;;;;;;10.03;100.00;101038.31;5092079;28;20131;-58
2022/12/24 09:31:10;;;;;;;35.00;9.00;;;;;;;10.03;100.00;101053.84;5092240;28;20040;-58
2022/12/24 09:33:40;;;;;;;37.33;9.73;;;;;;;10.03;100.00;101062.00;5086506;28;20079;-58
2022/12/24 09:36:09;;;;;;;35.35;8.68;;;;;;;10.00;100.00;101066.03;5081824;28;20040;-53
2022/12/24 09:38:38;;;;;;;40.80;9.85;;;;;;;10.00;100.00;101065.22;5092020;28;20043;-59
2022/12/24 09:41:26;;;;;;;40.90;9.57;;;;;;;9.99;100.00;101077.19;5091039;28;20418;-59
2022/12/24 09:44:26;;;;;;;32.63;8.27;;;;;;;9.99;100.00;101079.91;5092209;28;20044;-55
2022/12/24 09:46:54;;;;;;;34.30;8.30;;;;;;;10.01;100.00;101083.22;5094032;28;20094;-58
2022/12/24 09:49:27;;;;;;;33.72;8.93;;;;;;;10.01;100.00;101102.25;5097590;28;20039;-57
2022/12/24 09:52:09;;;;;;;36.92;8.07;;;;;;;10.01;100.00;101094.91;5095940;28;20044;-58
2022/12/24 09:54:42;;;;;;;29.98;8.60;;;;;;;10.04;100.00;101093.56;5095279;28;20066;-58
2022/12/24 09:57:27;;;;;;;38.67;8.50;;;;;;;10.05;100.00;101092.47;5095309;28;20371;-58
2022/12/24 09:59:55;;;;;;;39.20;9.48;;;;;;;10.04;100.00;101088.13;5094490;28;20052;-57
2022/12/24 10:02:23;;;;;;;36.08;8.32;;;;;;;10.05;100.00;101097.13;5095421;28;20622;-57
2022/12/24 10:04:51;;;;;;;39.47;10.18;;;;;;;10.07;100.00;101100.41;5095694;28;20430;-57
2022/12/24 10:07:52;;;;;;;37.05;9.27;;;;;;;10.09;100.00;101106.41;5095808;28;20044;-59
2022/12/24 10:10:33;;;;;;;31.75;8.85;;;;;;;10.09;100.00;101109.16;5091016;28;20048;-58
2022/12/24 10:13:07;;;;;;;37.45;8.63;;;;;;;10.12;100.00;101101.25;5082848;28;20486;-59
2022/12/24 10:15:40;;;;;;;35.40;8.68;;;;;;;10.16;100.00;101107.84;5095414;28;20078;-56
2022/12/24 10:18:29;;;;;;;38.05;9.73;;;;;;;10.20;100.00;101114.44;5080615;28;20054;-58
2022/12/24 10:21:03;;;;;;;35.90;9.50;;;;;;;10.20;100.00;101106.25;5094115;28;20492;-57
2022/12/24 10:23:35;;;;;;;35.38;8.85;;;;;;;10.22;100.00;101103.25;5081041;28;20048;-54
2022/12/24 10:26:11;;;;;;;33.53;9.70;;;;;;;10.22;100.00;101106.81;5094066;28;20043;-57
2022/12/24 10:28:55;;;;;;;35.05;8.77;;;;;;;10.23;100.00;101097.56;5095596;28;20044;-59
2022/12/24 10:31:31;;;;;;;34.90;9.02;;;;;;;10.24;100.00;101098.38;5095285;28;20124;-57
2022/12/24 10:34:11;;;;;;;38.45;9.02;;;;;;;10.27;100.00;101095.16;5082418;28;20113;-59
2022/12/24 10:36:38;;;;;;;43.38;9.73;;;;;;;10.30;100.00;101093.84;5095263;28;20127;-60
2022/12/24 10:39:20;;;;;;;36.97;9.32;;;;;;;10.35;100.00;101088.44;5094838;28;20441;-57
2022/12/24 10:41:54;;;;;;;41.13;9.30;;;;;;;10.38;100.00;101093.34;5090083;28;20067;-59
2022/12/24 10:44:25;;;;;;;37.28;8.85;;;;;;;10.38;100.00;101096.09;5090717;28;20051;-55
2022/12/24 10:46:53;;;;;;;35.00;8.90;;;;;;;10.37;100.00;101094.47;5093634;28;20095;-58
2022/12/24 10:49:43;;;;;;;42.13;9.75;;;;;;;10.37;100.00;101103.44;5093763;28;20044;-57
2022/12/24 10:52:20;;;;;;;42.17;9.48;;;;;;;10.38;100.00;101102.34;5106760;28;20547;-56
2022/12/24 10:55:19;;;;;;;38.95;9.10;;;;;;;10.37;100.00;101105.34;5094655;28;20050;-56
2022/12/24 10:58:01;;;;;;;35.83;9.38;;;;;;;10.36;100.00;101106.41;5094768;28;20040;-55
2022/12/24 11:00:29;;;;;;;34.08;9.05;;;;;;;10.33;100.00;101118.66;5092840;28;20039;-57
2022/12/24 11:03:12;;;;;;;43.10;10.30;;;;;;;10.32;100.00;101110.72;5091844;28;20470;-55
2022/12/24 11:05:40;;;;;;;32.90;8.40;;;;;;;10.33;100.00;101112.38;5080524;28;20086;-53
2022/12/24 11:08:13;;;;;;;38.10;9.00;;;;;;;10.32;100.00;101116.19;5094293;28;20040;-55
2022/12/24 11:10:57;;;;;;;37.65;9.73;;;;;;;10.34;100.00;101124.91;5093313;28;20040;-60
2022/12/24 11:13:43;;;;;;;37.67;8.65;;;;;;;10.35;100.00;101124.66;5092474;28;20040;-60
2022/12/24 11:16:20;;;;;;;;;;;;;;;10.36;100.00;101122.75;5093731;28;20051;-57
2022/12/24 11:18:50;;;;;;;38.05;9.10;;;;;;;10.35;100.00;101126.56;5093711;28;19920;-57
2022/12/24 11:21:27;;;;;;;41.97;9.32;;;;;;;10.35;100.00;101116.50;5083490;28;20043;-54
2022/12/24 11:23:57;;;;;;;33.03;8.73;;;;;;;10.35;100.00;101112.94;5095993;28;20407;-57
2022/12/24 11:26:27;;;;;;;42.80;9.13;;;;;;;10.36;100.00;101118.13;5094289;28;20048;-57
2022/12/24 11:29:23;;;;;;;36.90;10.02;;;;;;;10.37;100.00;101116.25;5093676;28;20056;-58
2022/12/24 11:31:52;;;;;;;38.92;9.80;;;;;;;10.37;100.00;101121.69;5094099;28;20088;-56
2022/12/24 11:34:32;;;;;;;38.15;8.13;;;;;;;10.37;100.00;101129.88;5058263;28;20049;-53